Sault Ste Marie Airport
CYAM : now visible

Airfield :











YOU CAN JOIN US ON...

 
LOGIN :

Register | Disclaimer

   EN    FR    IT 

 









Legend :    VFR   Marginal VFR   IFR   Intensive IFR   Very Intensive IFR
Visi :
Ceiling :
>= 8 km
>= 3000ft
5 to 8 km
1000 to 3000 ft
1500m to 5 km
500 to 1000 ft
800 to 1500m
200 to 500 ft
< 800m
< 200 ft
Symbols :   Thunderstorms  Fog  Heavy snow  Heavy precipitations  Wind > 20 kt






- Airport Elevation : 630 ft
- IATA code : YAM


CYAM - Sault Ste Marie

CURRENT METAR :
  • 232100Z 12008KT 090V160 20SM FEW039 BKN130 BKN210 24/16 A3005 RMK CU2AC4CI1 SLP179 DENSITY ALT 1700FT

EXPIRED METARs :
  • 232000Z 11008KT 080V170 25SM FEW130 SCT180 BKN200 BKN220 26/16 A3007 RMK AC2AS1CS1CI2 SLP186 DENSITY ALT 1900FT
  • 231900Z 14012G17KT 110V170 25SM FEW060 FEW120 SCT130 BKN200 BKN220 26/15 A3008 RMK CU1AC1AC2CS2CI1 CU TR SLP189 DENSITY ALT 1900FT

TAF TAF CYAM
Valid from the 23 at 20:00 until the 24 at 08:00 UTC


231938Z 2320/2408 14012KT P6SM FEW060 BKN200
FM232200 12010KT P6SM BKN040
PROB30 2404/2406 2SM +TSRA BR BKN008 OVC040CB
FM240600 13006KT 2SM RA BR OVC003
PROB40 2406/2408 2SM +TSRA BR BKN003 OVC040CB RMK NXT FCST BY 240200Z
CZYZ FIR / North America



MET'MAP, your aeronautical weather chart ! - Copyright ORBIFLY December 2007 - Disclaimer

ORBIFLY MET'MAP TEAM :

Programming & Development : Alexandra Zaïnal
Concept & original design : Baudouin d'Aumeries
Assistance for programming : Marc-Olivier Méhu
Technical & hardware support : Manuel Goepfert

Contact : metmap@orbifly.com




SOURCES & CREDITS :

   NOAA       Earth
Advisory